Time;durP1;ratioP1;P1;durP2;ratioP2;P2;SDS_P1;SDS_P2;PMS_P1;PMS_P2;Temp;Humidity;BMP_temperature;BMP_pressure;BME280_temperature;BME280_humidity;BME280_pressure;Samples;Min_cycle;Max_cycle;Signal;HPM_P1;HPM_P2
2022/03/14 00:01:16;;;;;;;5.65;4.35;;;;;;;14.42;36.73;97793.28;4997362;28;20434;-27
2022/03/14 00:03:45;;;;;;;7.47;5.05;;;;;;;14.34;36.58;97798.09;4997900;28;20025;-26
2022/03/14 00:06:12;;;;;;;5.03;4.00;;;;;;;14.45;36.09;97806.88;5004248;28;20534;-26
2022/03/14 00:08:44;;;;;;;6.13;4.05;;;;;;;14.49;36.47;97802.09;5003946;28;20071;-27
2022/03/14 00:11:10;;;;;;;6.63;4.82;;;;;;;14.45;36.33;97798.69;4997679;28;20060;-26
2022/03/14 00:13:37;;;;;;;7.85;4.32;;;;;;;14.42;36.08;97812.41;4997470;28;20024;-26
2022/03/14 00:16:03;;;;;;;6.07;4.30;;;;;;;14.47;36.11;97815.41;4997718;28;20064;-26
2022/03/14 00:18:32;;;;;;;6.25;4.18;;;;;;;14.39;36.44;97819.44;4997247;28;20087;-26
2022/03/14 00:20:58;;;;;;;5.68;4.10;;;;;;;14.42;36.21;97810.44;4997441;28;20110;-26
2022/03/14 00:23:26;;;;;;;6.38;4.00;;;;;;;14.43;36.19;97812.00;4997833;28;20033;-27
2022/03/14 00:25:54;;;;;;;7.07;3.92;;;;;;;14.45;36.22;97814.31;4997653;28;20141;-26
2022/03/14 00:28:20;;;;;;;7.05;4.03;;;;;;;14.42;36.46;97810.44;4997836;28;20041;-26
2022/03/14 00:30:46;;;;;;;6.50;4.25;;;;;;;14.44;36.14;97816.25;4998995;28;20036;-26
2022/03/14 00:33:11;;;;;;;6.75;4.25;;;;;;;14.42;36.08;97810.44;5004353;28;20041;-26
2022/03/14 00:35:37;;;;;;;5.78;4.07;;;;;;;14.45;36.20;97811.56;5003817;28;20064;-27
2022/03/14 00:38:02;;;;;;;5.72;4.03;;;;;;;14.40;36.51;97812.81;5007616;28;20034;-26
2022/03/14 00:40:28;;;;;;;6.18;4.22;;;;;;;14.40;36.39;97821.00;5006717;28;20025;-26
2022/03/14 00:42:54;;;;;;;7.47;4.43;;;;;;;14.42;36.40;97821.38;5006384;28;20071;-26
2022/03/14 00:45:22;;;;;;;9.13;4.30;;;;;;;14.41;36.31;97822.53;4999615;28;20140;-26
2022/03/14 00:47:48;;;;;;;6.05;4.25;;;;;;;14.38;36.68;97826.06;5007120;28;20482;-26
2022/03/14 00:50:13;;;;;;;5.78;4.22;;;;;;;14.41;36.57;97827.22;5006457;28;20033;-27
2022/03/14 00:52:39;;;;;;;5.55;3.80;;;;;;;14.34;36.86;97830.84;5001529;28;20033;-27
2022/03/14 00:55:05;;;;;;;5.95;4.00;;;;;;;14.45;36.46;97815.06;4998026;28;20127;-27
2022/03/14 00:57:31;;;;;;;6.15;4.40;;;;;;;14.42;36.65;97810.44;4998909;28;20431;-26
2022/03/14 00:59:57;;;;;;;5.18;4.05;;;;;;;14.40;36.97;97818.28;5000856;28;20072;-26
2022/03/14 01:02:23;;;;;;;8.35;5.10;;;;;;;14.35;37.22;97815.97;5003030;28;20030;-26
2022/03/14 01:04:48;;;;;;;6.47;4.65;;;;;;;14.37;37.07;97808.16;5011142;28;20095;-27
2022/03/14 01:07:14;;;;;;;5.90;4.30;;;;;;;14.35;37.14;97818.72;5002288;28;20137;-26
2022/03/14 01:09:40;;;;;;;6.05;4.00;;;;;;;14.38;36.99;97820.63;4998376;28;20489;-26
2022/03/14 01:12:06;;;;;;;8.10;4.90;;;;;;;14.39;37.07;97827.63;4997990;28;20147;-27
2022/03/14 01:14:31;;;;;;;6.63;4.45;;;;;;;14.44;36.75;97832.63;4998427;28;20144;-26
2022/03/14 01:16:57;;;;;;;5.93;4.63;;;;;;;14.43;37.19;97833.81;4997845;28;20681;-26
2022/03/14 01:19:22;;;;;;;6.18;4.28;;;;;;;14.41;37.18;97824.50;4997805;28;20329;-26
2022/03/14 01:21:48;;;;;;;6.97;4.35;;;;;;;14.42;37.04;97826.81;4998019;28;20533;-27
2022/03/14 01:24:14;;;;;;;7.22;4.78;;;;;;;14.44;37.22;97824.44;4998122;28;20029;-26
2022/03/14 01:26:40;;;;;;;7.15;4.45;;;;;;;14.41;37.32;97825.28;5000158;28;20148;-26
2022/03/14 01:29:07;;;;;;;6.93;4.40;;;;;;;14.42;37.17;97821.38;5001405;28;20030;-28
2022/03/14 01:31:33;;;;;;;6.45;4.05;;;;;;;14.45;36.88;97826.00;5004899;28;20045;-26
2022/03/14 01:33:59;;;;;;;8.15;4.43;;;;;;;14.36;37.36;97826.47;4997899;28;20036;-26
2022/03/14 01:36:25;;;;;;;7.63;4.88;;;;;;;14.36;37.60;97828.44;4997123;28;20052;-26
2022/03/14 01:38:51;;;;;;;4.93;4.25;;;;;;;14.43;36.85;97828.38;4997686;28;20033;-27
2022/03/14 01:41:18;;;;;;;6.50;4.55;;;;;;;14.43;37.18;97828.38;4997229;28;20815;-26
2022/03/14 01:43:44;;;;;;;5.65;3.90;;;;;;;14.38;37.14;97828.81;4998151;28;20084;-26
2022/03/14 01:46:10;;;;;;;8.23;4.63;;;;;;;14.36;37.48;97828.44;5001124;28;20368;-26
2022/03/14 01:48:35;;;;;;;6.55;4.53;;;;;;;14.37;37.48;97832.72;5008746;28;20105;-26
2022/03/14 01:51:01;;;;;;;6.07;4.15;;;;;;;14.38;37.57;97824.13;5006489;28;20462;-26
2022/03/14 01:53:30;;;;;;;4.72;4.03;;;;;;;14.38;37.49;97821.38;5005428;28;20084;-26
2022/03/14 01:55:56;;;;;;;6.13;4.28;;;;;;;14.42;37.33;97815.13;5006185;28;20482;-27
2022/03/14 01:58:22;;;;;;;5.13;4.20;;;;;;;14.43;37.36;97825.63;5003386;28;20044;-26
2022/03/14 02:00:48;;;;;;;6.07;4.80;;;;;;;14.39;37.59;97827.63;4997240;28;20238;-26
2022/03/14 02:03:13;;;;;;;8.98;4.50;;;;;;;14.35;37.36;97835.09;4997471;28;20057;-27
2022/03/14 02:05:40;;;;;;;6.35;4.38;;;;;;;14.39;37.28;97830.34;4996793;28;20473;-27
2022/03/14 02:08:07;;;;;;;7.22;4.13;;;;;;;14.36;37.89;97836.63;4997617;28;20524;-26
2022/03/14 02:10:34;;;;;;;5.82;4.35;;;;;;;14.38;37.38;97834.25;4997203;28;20622;-27
2022/03/14 02:13:07;;;;;;;6.50;4.25;;;;;;;14.37;37.34;97835.44;4997355;28;20026;-26
2022/03/14 02:15:33;;;;;;;5.75;4.13;;;;;;;14.36;37.34;97833.91;4998107;28;20164;-26
2022/03/14 02:17:59;;;;;;;5.63;3.70;;;;;;;14.40;37.65;97829.19;4994656;28;20177;-26
2022/03/14 02:20:26;;;;;;;6.78;4.07;;;;;;;14.35;37.66;97819.47;4996545;28;20498;-26
2022/03/14 02:22:51;;;;;;;6.00;4.38;;;;;;;14.37;37.37;97819.84;4996910;28;20045;-27
2022/03/14 02:25:17;;;;;;;7.15;4.47;;;;;;;14.44;37.67;97824.44;4996871;28;20084;-27
2022/03/14 02:27:42;;;;;;;6.65;4.60;;;;;;;14.36;37.91;97812.84;4996887;28;20868;-26
2022/03/14 02:30:08;;;;;;;5.53;4.45;;;;;;;14.37;37.83;97816.34;4997036;28;20091;-26
2022/03/14 02:32:39;;;;;;;5.97;4.57;;;;;;;14.33;37.63;97818.38;4998176;28;20026;-27
2022/03/14 02:35:05;;;;;;;5.07;3.95;;;;;;;14.38;37.43;97804.25;5005254;28;20057;-26
2022/03/14 02:37:31;;;;;;;7.75;4.55;;;;;;;14.32;37.88;97808.66;5000346;28;20037;-27
2022/03/14 02:39:57;;;;;;;7.45;4.30;;;;;;;14.36;37.75;97799.19;4995987;28;20030;-28
2022/03/14 02:42:22;;;;;;;5.72;3.88;;;;;;;14.32;37.63;97795.00;5000807;28;20508;-26
2022/03/14 02:44:48;;;;;;;5.93;4.30;;;;;;;14.35;37.85;97805.84;4994424;28;20029;-26
2022/03/14 02:47:14;;;;;;;7.15;4.55;;;;;;;14.32;37.91;97805.94;4997382;28;20029;-26
2022/03/14 02:49:40;;;;;;;7.97;4.20;;;;;;;14.31;37.62;97818.78;4997034;28;20052;-26
2022/03/14 02:52:06;;;;;;;6.20;4.13;;;;;;;14.36;37.43;97823.00;5001314;28;21051;-26
2022/03/14 02:54:32;;;;;;;4.95;3.70;;;;;;;14.28;37.63;97827.03;4996771;28;20030;-26
2022/03/14 02:56:57;;;;;;;6.13;4.20;;;;;;;14.27;37.57;97841.88;5003860;28;20035;-26
2022/03/14 02:59:23;;;;;;;6.93;4.20;;;;;;;14.31;37.62;97839.84;5004052;28;20037;-28
2022/03/14 03:01:48;;;;;;;7.07;3.90;;;;;;;14.35;37.68;97835.09;5002370;28;20033;-27
2022/03/14 03:04:14;;;;;;;5.82;4.28;;;;;;;14.29;37.94;97836.78;4995891;28;20045;-26
2022/03/14 03:06:40;;;;;;;7.05;3.92;;;;;;;14.34;37.40;97837.03;5004242;28;20079;-26
2022/03/14 03:09:06;;;;;;;5.72;3.95;;;;;;;14.37;37.60;97843.63;5004727;28;20451;-26
2022/03/14 03:11:33;;;;;;;7.45;3.70;;;;;;;14.35;37.55;97849.50;5004409;28;20442;-27
2022/03/14 03:13:59;;;;;;;5.75;3.97;;;;;;;14.32;37.54;97849.59;5004369;28;20035;-28
2022/03/14 03:16:26;;;;;;;5.05;3.45;;;;;;;14.32;38.10;97850.34;5003582;28;20035;-26
2022/03/14 03:18:52;;;;;;;5.07;4.10;;;;;;;14.35;37.68;97859.66;5004367;28;20029;-26
2022/03/14 03:21:17;;;;;;;5.03;3.88;;;;;;;14.35;37.96;97851.47;5003827;28;20030;-26
2022/03/14 03:23:43;;;;;;;5.15;3.95;;;;;;;14.29;37.86;97866.78;5002089;28;20034;-27
2022/03/14 03:26:09;;;;;;;5.70;3.50;;;;;;;14.29;38.18;97862.09;4996094;28;20044;-26
2022/03/14 03:28:37;;;;;;;5.10;3.80;;;;;;;14.26;38.01;97867.59;4995911;28;20089;-26
2022/03/14 03:31:07;;;;;;;5.78;4.00;;;;;;;14.34;37.73;97874.50;5000663;28;20033;-27
2022/03/14 03:33:33;;;;;;;5.55;3.65;;;;;;;14.36;37.66;97877.56;5002258;28;20104;-28
2022/03/14 03:35:59;;;;;;;5.18;4.00;;;;;;;14.27;38.18;97882.81;5002404;28;20053;-26
2022/03/14 03:38:26;;;;;;;5.68;4.15;;;;;;;14.33;37.76;97878.41;5002258;28;20026;-26
2022/03/14 03:40:52;;;;;;;5.57;3.88;;;;;;;14.38;37.49;97886.13;5002930;28;20041;-26
2022/03/14 03:43:17;;;;;;;6.13;3.75;;;;;;;14.31;37.65;97886.25;5004674;28;20044;-26
2022/03/14 03:45:43;;;;;;;7.07;4.10;;;;;;;14.29;38.00;97891.34;5005308;28;20030;-27
2022/03/14 03:48:08;;;;;;;4.30;3.47;;;;;;;14.31;37.64;97887.03;5010537;28;20358;-26
2022/03/14 03:50:34;;;;;;;5.95;4.05;;;;;;;14.33;37.75;97889.34;5010982;28;20029;-26
2022/03/14 03:53:00;;;;;;;5.13;3.83;;;;;;;14.23;37.95;97890.25;5010735;28;20394;-26
2022/03/14 03:55:25;;;;;;;7.68;3.85;;;;;;;14.31;37.59;97891.72;5002831;28;20037;-26
2022/03/14 03:57:51;;;;;;;5.72;3.85;;;;;;;14.30;37.85;97895.63;5002465;28;20091;-26
2022/03/14 04:00:18;;;;;;;4.60;3.50;;;;;;;14.28;37.53;97892.53;5002204;28;20148;-27
2022/03/14 04:02:44;;;;;;;6.35;4.20;;;;;;;14.31;37.63;97902.63;5001770;28;20037;-27
2022/03/14 04:05:13;;;;;;;6.35;3.72;;;;;;;14.33;37.68;97909.22;5004027;28;20057;-26
2022/03/14 04:07:40;;;;;;;4.32;3.65;;;;;;;14.28;38.09;97906.19;5010714;28;20033;-26
2022/03/14 04:10:06;;;;;;;5.60;3.63;;;;;;;14.36;37.86;97913.06;5010930;28;20037;-26
2022/03/14 04:12:32;;;;;;;4.78;3.90;;;;;;;14.33;37.79;97924.81;5010106;28;20030;-26
2022/03/14 04:14:58;;;;;;;5.20;4.03;;;;;;;14.31;37.76;97917.03;5004697;28;20098;-26
2022/03/14 04:17:28;;;;;;;4.82;3.45;;;;;;;14.29;38.07;97921.38;5002451;28;20051;-27
2022/03/14 04:19:54;;;;;;;5.80;3.70;;;;;;;14.20;38.17;97919.16;5003150;28;20123;-27
2022/03/14 04:22:20;;;;;;;6.35;3.70;;;;;;;14.30;37.90;97923.69;5003007;28;20500;-26
2022/03/14 04:24:45;;;;;;;4.93;3.38;;;;;;;14.28;37.63;97922.53;5009744;28;20028;-26
2022/03/14 04:27:11;;;;;;;6.75;3.85;;;;;;;14.28;37.71;97936.19;5006709;28;20112;-26
2022/03/14 04:29:37;;;;;;;6.32;3.92;;;;;;;14.26;37.74;97933.09;5002521;28;20033;-26
2022/03/14 04:32:04;;;;;;;5.50;4.03;;;;;;;14.30;37.88;97940.06;5001694;28;20033;-26
2022/03/14 04:34:29;;;;;;;6.88;4.03;;;;;;;14.25;37.62;97934.28;5002020;28;20061;-26
2022/03/14 04:36:55;;;;;;;6.10;3.97;;;;;;;14.29;37.71;97938.50;5001670;28;20045;-26
2022/03/14 04:39:21;;;;;;;3.95;3.42;;;;;;;14.26;37.82;97931.16;5002223;28;20025;-28
2022/03/14 04:41:47;;;;;;;5.78;3.70;;;;;;;14.31;37.59;97927.19;4999831;28;20111;-26
2022/03/14 04:44:13;;;;;;;6.75;3.95;;;;;;;14.25;37.79;97931.56;4999199;28;20065;-26
2022/03/14 04:46:39;;;;;;;7.40;4.03;;;;;;;14.22;38.05;97938.59;4998422;28;20458;-26
2022/03/14 04:49:05;;;;;;;5.93;3.67;;;;;;;14.25;37.94;97932.31;4998796;28;20045;-26
2022/03/14 04:51:32;;;;;;;5.30;3.83;;;;;;;14.28;37.95;97936.19;4998332;28;21098;-27
2022/03/14 04:53:58;;;;;;;6.28;3.60;;;;;;;14.28;37.81;97938.91;4998620;28;20030;-26
2022/03/14 04:56:24;;;;;;;5.70;3.60;;;;;;;14.25;37.88;97937.00;4998570;28;20442;-26
2022/03/14 04:58:50;;;;;;;6.80;4.10;;;;;;;14.24;37.88;97938.19;4999593;28;20029;-26
2022/03/14 05:01:17;;;;;;;7.65;4.20;;;;;;;14.29;37.64;97943.19;5006794;28;20394;-27
2022/03/14 05:03:43;;;;;;;5.13;3.92;;;;;;;14.26;37.86;97944.00;5006680;28;20029;-26
2022/03/14 05:06:09;;;;;;;6.82;3.92;;;;;;;14.30;37.59;97942.00;5003214;28;20054;-26
2022/03/14 05:08:34;;;;;;;5.15;3.90;;;;;;;14.25;37.82;97945.19;4997894;28;20208;-26
2022/03/14 05:11:00;;;;;;;6.93;3.80;;;;;;;14.23;37.72;97944.84;4997816;28;20580;-27
2022/03/14 05:13:26;;;;;;;5.90;3.90;;;;;;;14.28;37.87;97947.09;5001981;28;20037;-27
2022/03/14 05:15:51;;;;;;;6.07;3.90;;;;;;;14.21;37.93;97948.00;5019091;28;20470;-27
2022/03/14 05:18:17;;;;;;;5.90;4.00;;;;;;;14.17;37.81;97944.53;5035120;28;20082;-26
2022/03/14 05:20:42;;;;;;;7.45;4.18;;;;;;;14.21;37.69;97944.50;5035621;28;20029;-28
2022/03/14 05:23:08;;;;;;;6.93;4.32;;;;;;;14.27;37.84;97949.06;5035194;28;20112;-26
2022/03/14 05:25:34;;;;;;;4.80;3.92;;;;;;;14.26;37.47;97947.53;5035447;28;20048;-26
2022/03/14 05:28:00;;;;;;;8.88;3.90;;;;;;;14.24;37.50;97946.38;5035622;28;20033;-27
2022/03/14 05:30:26;;;;;;;7.05;4.22;;;;;;;14.23;37.75;97933.91;5035306;28;20557;-26
2022/03/14 05:32:52;;;;;;;7.40;4.00;;;;;;;14.25;37.31;97948.69;5035271;28;20021;-27
2022/03/14 05:35:18;;;;;;;5.30;4.07;;;;;;;14.26;37.41;97949.47;5035145;28;20049;-26
2022/03/14 05:37:46;;;;;;;5.55;3.80;;;;;;;14.29;37.50;97949.44;5035092;28;20455;-26
2022/03/14 05:40:15;;;;;;;7.05;4.00;;;;;;;14.28;37.45;97950.63;5035052;28;20030;-27
2022/03/14 05:42:42;;;;;;;7.32;4.18;;;;;;;14.33;37.44;97949.38;5035057;28;20132;-26
2022/03/14 05:45:08;;;;;;;9.05;4.07;;;;;;;14.22;37.41;97951.47;5034905;28;20469;-28
2022/03/14 05:47:35;;;;;;;8.60;4.72;;;;;;;14.27;37.38;97954.53;5035005;28;20037;-26
2022/03/14 05:50:01;;;;;;;8.38;4.38;;;;;;;14.32;37.36;97959.53;5034818;28;20029;-27
2022/03/14 05:52:27;;;;;;;4.70;3.47;;;;;;;14.29;37.21;97954.09;5034638;28;20439;-27
2022/03/14 05:54:53;;;;;;;7.07;4.10;;;;;;;14.29;37.39;97954.09;5034540;28;20108;-26
2022/03/14 05:57:18;;;;;;;9.65;4.00;;;;;;;14.26;37.24;97958.44;5034928;28;20109;-26
2022/03/14 05:59:44;;;;;;;10.43;4.30;;;;;;;14.26;37.10;97957.66;5033488;28;20494;-27
2022/03/14 06:02:10;;;;;;;8.93;4.15;;;;;;;14.29;37.54;97956.84;5034756;28;20025;-26
2022/03/14 06:04:39;;;;;;;5.82;3.63;;;;;;;14.31;37.35;97960.72;5033170;28;20045;-26
2022/03/14 06:07:04;;;;;;;7.60;4.28;;;;;;;14.31;37.37;97962.66;5034771;28;20029;-26
2022/03/14 06:09:30;;;;;;;7.53;4.00;;;;;;;14.38;36.97;97973.44;5034625;28;20079;-27
2022/03/14 06:11:56;;;;;;;9.23;4.40;;;;;;;14.28;37.08;97974.41;5034502;28;20025;-26
2022/03/14 06:14:21;;;;;;;8.07;4.47;;;;;;;14.32;37.20;97975.91;5034023;28;20104;-27
2022/03/14 06:16:47;;;;;;;6.75;4.25;;;;;;;14.27;37.06;97984.53;5034520;28;20037;-26
2022/03/14 06:19:13;;;;;;;8.23;4.40;;;;;;;14.28;37.08;97983.34;5034588;28;20112;-27
2022/03/14 06:21:39;;;;;;;9.50;4.20;;;;;;;14.31;36.89;97987.22;5031417;28;20025;-26
2022/03/14 06:24:08;;;;;;;9.82;4.82;;;;;;;14.32;36.93;97994.22;5030444;28;20053;-27
2022/03/14 06:26:35;;;;;;;14.88;5.10;;;;;;;14.25;37.37;97991.59;5032455;28;20021;-26
2022/03/14 06:29:01;;;;;;;9.73;4.57;;;;;;;14.25;37.15;97997.03;5032324;28;20025;-26
2022/03/14 06:31:27;;;;;;;7.30;4.38;;;;;;;14.30;37.19;98005.56;5032220;28;20108;-26
2022/03/14 06:33:53;;;;;;;11.82;4.63;;;;;;;14.29;36.95;98004.00;5032036;28;20112;-27
2022/03/14 06:36:18;;;;;;;13.73;5.53;;;;;;;14.28;37.12;97993.50;5032175;28;20755;-27
2022/03/14 06:38:45;;;;;;;11.95;5.90;;;;;;;14.29;37.38;97997.78;5032173;28;20026;-26
2022/03/14 06:41:12;;;;;;;12.02;5.32;;;;;;;14.26;37.04;97998.59;5031955;28;20033;-26
2022/03/14 06:43:38;;;;;;;9.25;4.97;;;;;;;14.33;37.34;98014.88;5030588;28;20390;-26
2022/03/14 06:46:08;;;;;;;9.93;5.10;;;;;;;14.29;37.72;98008.69;5031500;28;20033;-27
2022/03/14 06:48:39;;;;;;;12.60;4.78;;;;;;;14.33;37.70;98017.59;5031930;28;20037;-27
2022/03/14 06:51:05;;;;;;;9.05;4.65;;;;;;;14.27;37.65;98005.59;5031598;28;20040;-26
2022/03/14 06:53:31;;;;;;;10.85;5.22;;;;;;;14.34;37.63;98010.97;5031688;28;20021;-26
2022/03/14 06:55:56;;;;;;;7.47;4.80;;;;;;;14.21;37.74;98007.25;5031919;28;20367;-28
2022/03/14 06:58:22;;;;;;;8.75;4.72;;;;;;;14.21;38.07;98010.00;5031606;28;20116;-27
2022/03/14 07:00:48;;;;;;;9.35;4.65;;;;;;;14.25;38.11;98016.16;5031790;28;20029;-27
2022/03/14 07:03:14;;;;;;;9.45;4.72;;;;;;;14.24;38.11;98022.78;5031558;28;20029;-27
2022/03/14 07:05:40;;;;;;;9.20;5.07;;;;;;;14.23;38.26;98027.47;5030759;28;20057;-26
2022/03/14 07:08:06;;;;;;;11.02;5.03;;;;;;;14.27;38.02;98027.44;5031686;28;20026;-27
2022/03/14 07:10:32;;;;;;;11.38;6.35;;;;;;;14.25;37.88;98036.03;5031407;28;20029;-26
2022/03/14 07:12:57;;;;;;;7.32;4.82;;;;;;;14.35;38.06;98028.84;5030157;28;20029;-28
2022/03/14 07:15:25;;;;;;;11.02;5.55;;;;;;;14.30;37.85;98037.53;5031551;28;20091;-27
2022/03/14 07:17:52;;;;;;;7.85;4.97;;;;;;;14.34;37.97;98041.00;5031493;28;20037;-26
2022/03/14 07:20:18;;;;;;;7.93;5.20;;;;;;;14.27;38.36;98050.03;5031603;28;20026;-27
2022/03/14 07:23:02;;;;;;;10.75;5.68;;;;;;;14.25;38.56;98046.16;5028225;28;20065;-26
2022/03/14 07:25:31;;;;;;;7.97;5.25;;;;;;;14.21;38.06;98062.59;5031539;28;20087;-27
2022/03/14 07:28:02;;;;;;;9.07;5.65;;;;;;;14.29;38.05;98060.53;5031343;28;20124;-27
2022/03/14 07:30:28;;;;;;;6.47;4.93;;;;;;;14.28;37.82;98067.97;5031450;28;20631;-27
2022/03/14 07:32:54;;;;;;;10.07;5.43;;;;;;;14.26;37.83;98073.03;5031340;28;20025;-26
2022/03/14 07:35:20;;;;;;;9.00;5.50;;;;;;;14.22;37.90;98063.34;5031057;28;20092;-26
2022/03/14 07:37:47;;;;;;;9.55;5.07;;;;;;;14.23;37.78;98079.31;5031266;28;20034;-28
2022/03/14 07:40:15;;;;;;;8.18;4.97;;;;;;;14.18;38.02;98068.88;5031301;28;20037;-28
2022/03/14 07:42:43;;;;;;;8.02;5.22;;;;;;;14.21;37.77;98067.28;5031211;28;20088;-26
2022/03/14 07:45:10;;;;;;;6.72;4.68;;;;;;;14.26;37.69;98069.53;5031242;28;20470;-27
2022/03/14 07:47:36;;;;;;;10.27;5.10;;;;;;;14.15;37.77;98071.66;5029802;28;20029;-26
2022/03/14 07:50:01;;;;;;;8.88;5.22;;;;;;;14.21;37.29;98072.75;5031316;28;20036;-26
2022/03/14 07:52:27;;;;;;;9.23;4.97;;;;;;;14.19;37.48;98069.66;5031152;28;20037;-26
2022/03/14 07:54:52;;;;;;;9.63;5.10;;;;;;;14.19;37.28;98078.59;5031153;28;20083;-26
2022/03/14 07:57:18;;;;;;;7.93;4.55;;;;;;;14.24;37.21;98082.81;5031043;28;20512;-27
2022/03/14 07:59:46;;;;;;;5.82;4.15;;;;;;;14.21;37.02;98086.38;5031049;28;20038;-26
2022/03/14 08:02:15;;;;;;;6.93;4.38;;;;;;;14.19;36.98;98080.56;5031141;28;20033;-26
2022/03/14 08:04:41;;;;;;;6.82;4.30;;;;;;;14.09;37.24;98082.25;5030627;28;20057;-27
2022/03/14 08:07:07;;;;;;;6.90;4.50;;;;;;;14.17;37.01;98083.69;5030996;28;20036;-27
2022/03/14 08:09:32;;;;;;;7.75;4.43;;;;;;;14.21;36.68;98084.44;5030147;28;20029;-27
2022/03/14 08:12:00;;;;;;;5.90;4.07;;;;;;;14.20;36.50;98093.03;5031206;28;20030;-27
2022/03/14 08:14:26;;;;;;;6.93;4.13;;;;;;;14.17;36.74;98097.34;5030888;28;20025;-26
2022/03/14 08:16:51;;;;;;;7.15;4.70;;;;;;;14.19;36.42;98102.41;5032731;28;20024;-26
2022/03/14 08:19:17;;;;;;;7.70;4.40;;;;;;;14.22;36.19;98104.28;5034797;28;20037;-26
2022/03/14 08:21:43;;;;;;;6.82;3.85;;;;;;;14.25;36.23;98108.94;5034421;28;20132;-27
2022/03/14 08:24:09;;;;;;;5.43;4.10;;;;;;;14.26;35.99;98105.03;5032827;28;20075;-26
2022/03/14 08:26:35;;;;;;;5.93;4.05;;;;;;;13.97;36.75;98102.63;5034559;28;20474;-28
2022/03/14 08:29:00;;;;;;;5.28;3.72;;;;;;;13.99;36.74;98108.47;5033150;28;20021;-26
2022/03/14 08:31:26;;;;;;;4.80;3.70;;;;;;;14.02;36.22;98104.94;5034327;28;20493;-27
2022/03/14 08:33:52;;;;;;;7.47;4.15;;;;;;;14.14;36.19;98109.06;5034168;28;20021;-27
2022/03/14 08:36:21;;;;;;;8.35;4.25;;;;;;;14.15;36.00;98113.34;5034422;28;20029;-27
2022/03/14 08:38:48;;;;;;;5.63;4.03;;;;;;;14.07;36.37;98127.50;5034305;28;20033;-28
2022/03/14 08:41:16;;;;;;;7.13;4.45;;;;;;;14.00;36.34;98112.75;5034062;28;20390;-27
2022/03/14 08:43:43;;;;;;;8.18;4.03;;;;;;;14.10;36.39;98123.91;5033934;28;20032;-28
2022/03/14 08:46:09;;;;;;;5.85;3.78;;;;;;;13.84;36.57;98118.00;5033897;28;20470;-27
2022/03/14 08:48:35;;;;;;;5.97;3.80;;;;;;;14.17;35.93;98121.13;5034322;28;20041;-26
2022/03/14 08:51:00;;;;;;;5.60;3.83;;;;;;;14.23;35.64;98122.19;5034105;28;20018;-26
2022/03/14 08:53:26;;;;;;;8.57;4.53;;;;;;;14.14;35.70;98124.66;5034093;28;20028;-26
2022/03/14 08:55:52;;;;;;;6.40;4.25;;;;;;;14.21;35.90;98121.88;5034452;28;20030;-27
2022/03/14 08:58:17;;;;;;;6.60;4.00;;;;;;;14.13;35.73;98126.63;5035732;28;20075;-27
2022/03/14 09:00:43;;;;;;;7.22;4.07;;;;;;;14.01;35.95;98132.59;5036041;28;20025;-26
2022/03/14 09:03:09;;;;;;;8.27;5.00;;;;;;;13.94;35.91;98146.34;5034506;28;20411;-27
2022/03/14 09:05:35;;;;;;;6.50;4.75;;;;;;;13.98;35.66;98136.91;5035561;28;20153;-26
2022/03/14 09:08:02;;;;;;;6.68;4.32;;;;;;;14.08;35.21;98139.94;5035649;28;20096;-27
2022/03/14 09:10:28;;;;;;;7.30;4.20;;;;;;;13.87;36.36;98140.94;5035633;28;20029;-26
2022/03/14 09:12:54;;;;;;;6.82;3.83;;;;;;;13.93;35.28;98151.03;5035689;28;20036;-27
2022/03/14 09:15:20;;;;;;;8.10;4.68;;;;;;;13.91;34.72;98152.59;5035905;28;20463;-27
2022/03/14 09:17:46;;;;;;;6.80;4.30;;;;;;;13.83;35.68;98151.91;5035721;28;20040;-27
2022/03/14 09:20:12;;;;;;;6.35;4.60;;;;;;;14.00;35.50;98150.94;5035611;28;20485;-27
2022/03/14 09:22:38;;;;;;;6.15;4.40;;;;;;;14.13;35.58;98153.13;5042406;28;20025;-26
2022/03/14 09:25:04;;;;;;;6.22;4.30;;;;;;;13.89;35.81;98154.94;5042663;28;20039;-28
2022/03/14 09:27:30;;;;;;;6.90;4.60;;;;;;;13.75;35.47;98155.88;5043293;28;20040;-26
2022/03/14 09:29:56;;;;;;;7.45;4.63;;;;;;;13.88;34.68;98162.34;5042749;28;20025;-26
2022/03/14 09:32:21;;;;;;;6.00;4.20;;;;;;;14.15;35.22;98150.78;5052642;28;20032;-27
2022/03/14 09:34:47;;;;;;;8.40;4.70;;;;;;;14.10;33.95;98164.84;5038655;28;20120;-26
2022/03/14 09:37:13;;;;;;;9.10;4.47;;;;;;;14.13;34.86;98167.53;5038922;28;20126;-27
2022/03/14 09:39:38;;;;;;;6.55;4.35;;;;;;;14.24;34.92;98160.00;5051148;28;20040;-27
2022/03/14 09:42:07;;;;;;;8.80;4.28;;;;;;;14.35;34.96;98159.88;5050958;28;20518;-28
2022/03/14 09:44:34;;;;;;;6.13;4.28;;;;;;;14.37;34.65;98157.50;5038143;28;20481;-26
2022/03/14 09:47:03;;;;;;;7.78;4.07;;;;;;;14.40;34.79;98173.09;5040160;28;20079;-26
2022/03/14 09:49:31;;;;;;;5.70;4.13;;;;;;;14.44;34.84;98173.84;5053282;28;20040;-26
2022/03/14 09:51:59;;;;;;;5.93;4.10;;;;;;;14.44;34.66;98165.66;5045289;28;20029;-26
2022/03/14 09:54:24;;;;;;;5.93;4.20;;;;;;;14.47;34.68;98166.75;5037445;28;20029;-26
2022/03/14 09:56:50;;;;;;;4.68;3.85;;;;;;;14.43;34.29;98160.59;5049600;28;20028;-27
2022/03/14 09:59:16;;;;;;;4.78;4.00;;;;;;;14.45;34.42;98159.00;5052783;28;20045;-27
2022/03/14 10:01:41;;;;;;;6.30;3.58;;;;;;;14.44;34.68;98168.38;5054876;28;20029;-28
2022/03/14 10:04:08;;;;;;;7.35;4.00;;;;;;;14.41;34.67;98163.72;5054410;28;20039;-28
2022/03/14 10:06:35;;;;;;;7.05;4.10;;;;;;;14.47;34.80;98161.31;5054812;28;20033;-27
2022/03/14 10:09:01;;;;;;;7.25;4.13;;;;;;;14.38;34.33;98161.78;5039541;28;20029;-26
2022/03/14 10:11:27;;;;;;;7.20;3.78;;;;;;;14.37;34.44;98158.28;5045488;28;20025;-26
2022/03/14 10:13:53;;;;;;;6.72;4.03;;;;;;;14.42;34.21;98153.59;5034483;28;20021;-26
2022/03/14 10:16:19;;;;;;;6.47;4.10;;;;;;;14.50;33.92;98144.88;5034253;28;20558;-27
2022/03/14 10:18:53;;;;;;;5.70;4.15;;;;;;;14.44;34.29;98157.47;5034063;28;20079;-26
2022/03/14 10:21:39;;;;;;;5.13;3.42;;;;;;;14.41;34.32;98147.34;5034228;28;20021;-25
2022/03/14 10:24:10;;;;;;;5.10;3.80;;;;;;;14.28;33.77;98146.31;5032804;28;20159;-26
2022/03/14 10:26:39;;;;;;;5.90;3.60;;;;;;;14.50;33.79;98144.88;5034323;28;20040;-26
2022/03/14 10:29:10;;;;;;;5.90;3.45;;;;;;;14.49;33.89;98146.06;5034006;28;20577;-26
2022/03/14 10:31:38;;;;;;;7.82;3.92;;;;;;;14.53;33.78;98143.31;5034184;28;20021;-26
2022/03/14 10:34:08;;;;;;;7.15;3.97;;;;;;;14.49;33.51;98143.34;5034101;28;20492;-26
2022/03/14 10:36:47;;;;;;;5.85;3.70;;;;;;;14.57;33.42;98138.56;5034052;28;20512;-26
2022/03/14 10:39:13;;;;;;;5.40;3.65;;;;;;;14.61;33.67;98152.94;5034041;28;20075;-26
2022/03/14 10:41:39;;;;;;;7.38;4.18;;;;;;;14.61;33.15;98150.19;5033860;28;20160;-28
2022/03/14 10:44:07;;;;;;;5.97;3.28;;;;;;;14.65;33.11;98151.72;5033629;28;20025;-27
2022/03/14 10:46:37;;;;;;;6.13;4.10;;;;;;;14.69;33.11;98151.66;5044569;28;20047;-26
2022/03/14 10:49:04;;;;;;;5.57;3.67;;;;;;;14.61;33.30;98150.97;5047293;28;20029;-26
2022/03/14 10:51:30;;;;;;;5.68;3.78;;;;;;;14.63;32.92;98151.34;5034616;28;20112;-26
2022/03/14 10:53:55;;;;;;;8.27;3.63;;;;;;;14.65;33.09;98146.25;5033380;28;20093;-26
2022/03/14 10:56:27;;;;;;;5.20;3.85;;;;;;;14.57;33.16;98147.53;5031887;28;20474;-26
2022/03/14 10:58:56;;;;;;;6.63;3.67;;;;;;;14.56;32.77;98143.25;5044462;28;20439;-26
2022/03/14 11:01:22;;;;;;;7.18;4.10;;;;;;;14.56;32.47;98146.00;5033571;28;20028;-26
2022/03/14 11:03:47;;;;;;;5.35;3.83;;;;;;;14.60;32.44;98146.69;5033702;28;20410;-26
2022/03/14 11:06:17;;;;;;;5.30;3.60;;;;;;;14.66;32.56;98147.78;5033509;28;20418;-27
2022/03/14 11:08:51;;;;;;;4.40;3.25;;;;;;;14.59;32.55;98144.38;5033646;28;20018;-27
2022/03/14 11:11:21;;;;;;;5.60;3.20;;;;;;;14.64;32.39;98150.16;5033441;28;20083;-26
2022/03/14 11:13:52;;;;;;;4.35;3.28;;;;;;;14.67;32.15;98152.06;5033902;28;20017;-27
2022/03/14 11:16:18;;;;;;;5.70;3.10;;;;;;;14.67;31.97;98149.34;5033191;28;20029;-27
2022/03/14 11:18:45;;;;;;;5.05;3.45;;;;;;;14.71;32.03;98160.97;5045651;28;20055;-26
2022/03/14 11:21:13;;;;;;;3.65;2.95;;;;;;;14.68;31.88;98145.44;5033464;28;20040;-27
2022/03/14 11:23:44;;;;;;;7.18;3.67;;;;;;;14.66;32.02;98145.06;5033310;28;20029;-26
2022/03/14 11:26:13;;;;;;;4.22;3.08;;;;;;;14.68;31.33;98144.66;5033289;28;20025;-26
2022/03/14 11:28:41;;;;;;;3.97;2.53;;;;;;;14.71;31.19;98146.56;5033443;28;20022;-26
2022/03/14 11:31:07;;;;;;;4.35;2.58;;;;;;;14.78;31.00;98143.72;5033419;28;20030;-26